Time;durP1;ratioP1;P1;durP2;ratioP2;P2;SDS_P1;SDS_P2;PMS_P1;PMS_P2;Temp;Humidity;BMP_temperature;BMP_pressure;BME280_temperature;BME280_humidity;BME280_pressure;Samples;Min_cycle;Max_cycle;Signal;HPM_P1;HPM_P2
2023/06/07 00:01:21;;;;;;;1999.90;999.90;;;;;;;21.35;46.66;102242.53;5055923;28;20075;-72
2023/06/07 00:03:48;;;;;;;1999.90;999.90;;;;;;;21.57;46.71;102235.63;5066753;28;20111;-71
2023/06/07 00:06:14;;;;;;;1999.90;999.90;;;;;;;22.31;44.43;102241.00;5071371;28;20104;-72
2023/06/07 00:08:39;;;;;;;1999.90;999.90;;;;;;;21.57;45.59;102235.63;5053716;28;20123;-71
2023/06/07 00:11:05;;;;;;;1999.90;999.90;;;;;;;21.07;47.49;102250.50;5065486;28;20029;-72
2023/06/07 00:13:31;;;;;;;1999.90;999.90;;;;;;;21.85;44.69;102244.41;5069505;28;20031;-72
2023/06/07 00:15:56;;;;;;;1999.90;999.90;;;;;;;22.05;45.20;102242.84;5063454;28;20024;-72
2023/06/07 00:18:22;;;;;;;1999.90;999.90;;;;;;;22.59;44.09;102245.31;5080383;28;20024;-71
2023/06/07 00:20:49;;;;;;;1999.90;999.90;;;;;;;22.32;44.38;102240.94;5058373;28;20024;-72
2023/06/07 00:23:15;;;;;;;1999.90;999.90;;;;;;;21.38;46.45;102254.84;5074838;28;20024;-71
2023/06/07 00:25:40;;;;;;;1999.90;999.90;;;;;;;21.57;45.87;102254.25;5055415;28;20032;-73
2023/06/07 00:28:06;;;;;;;1999.90;999.90;;;;;;;22.25;45.33;102249.22;5073184;28;20031;-71
2023/06/07 00:30:31;;;;;;;1999.90;999.90;;;;;;;22.44;44.07;102250.28;5054647;28;20032;-73
2023/06/07 00:32:57;;;;;;;1999.90;999.90;;;;;;;22.72;43.31;102243.91;5058107;28;20034;-72
2023/06/07 00:35:22;;;;;;;1999.90;999.90;;;;;;;22.97;43.07;102243.81;5093583;28;20505;-71
2023/06/07 00:37:47;;;;;;;1999.90;999.90;;;;;;;22.77;42.92;102241.94;5067574;28;20027;-71
2023/06/07 00:40:13;;;;;;;1999.90;999.90;;;;;;;22.25;44.09;102246.56;5066726;28;20134;-71
2023/06/07 00:42:38;;;;;;;1999.90;999.90;;;;;;;21.11;47.27;102246.84;5062731;28;20020;-71
2023/06/07 00:45:04;;;;;;;1999.90;999.90;;;;;;;22.43;44.93;102243.22;5074748;28;20502;-71
2023/06/07 00:47:30;;;;;;;1999.90;999.90;;;;;;;21.97;45.43;102239.59;5083992;28;20020;-71
2023/06/07 00:49:55;;;;;;;1999.90;999.90;;;;;;;22.77;43.24;102241.94;5056223;28;20024;-71
2023/06/07 00:52:21;;;;;;;1999.90;999.90;;;;;;;22.45;44.10;102244.06;5073012;28;20025;-71
2023/06/07 00:54:48;;;;;;;1999.90;999.90;;;;;;;22.64;43.33;102251.31;5058629;28;20049;-73
2023/06/07 00:57:16;;;;;;;1999.90;999.90;;;;;;;21.74;46.04;102248.38;5054229;28;20021;-73
2023/06/07 00:59:42;;;;;;;1999.90;999.90;;;;;;;21.28;46.29;102245.44;5060161;28;20028;-72
2023/06/07 01:02:08;;;;;;;1999.90;999.90;;;;;;;22.20;45.18;102247.59;5073413;28;20381;-71
2023/06/07 01:04:40;;;;;;;1999.90;999.90;;;;;;;21.95;45.29;102244.06;5057914;28;20035;-71
2023/06/07 01:07:07;;;;;;;1999.90;999.90;;;;;;;22.38;45.02;102247.00;5073697;28;20052;-71
2023/06/07 01:09:37;;;;;;;1999.90;999.90;;;;;;;21.85;45.80;102241.72;5054903;28;20059;-72
2023/06/07 01:12:05;;;;;;;1999.90;999.90;;;;;;;21.01;47.02;102243.63;5060841;28;20051;-72
2023/06/07 01:14:33;;;;;;;1999.90;999.90;;;;;;;21.39;46.32;102235.31;5092661;28;20016;-72
2023/06/07 01:17:02;;;;;;;1999.90;999.90;;;;;;;21.47;45.61;102233.28;5071466;28;20069;-71
2023/06/07 01:19:29;;;;;;;1999.90;999.90;;;;;;;22.88;43.04;102239.69;5071543;28;20047;-71
2023/06/07 01:22:06;;;;;;;1999.90;999.90;;;;;;;22.10;43.76;102227.53;5054034;28;20038;-71
2023/06/07 01:24:35;;;;;;;1999.90;999.90;;;;;;;22.63;42.98;102233.63;5092525;28;20046;-72
2023/06/07 01:27:02;;;;;;;1999.90;999.90;;;;;;;22.81;42.73;102238.22;5091945;28;20020;-71
2023/06/07 01:29:29;;;;;;;1999.90;999.90;;;;;;;21.85;44.89;102231.09;5084044;28;20031;-72
2023/06/07 01:31:57;;;;;;;1999.90;999.90;;;;;;;22.00;44.03;102229.69;5070630;28;20128;-73
2023/06/07 01:34:24;;;;;;;1999.90;999.90;;;;;;;22.33;44.28;102233.81;5053005;28;20032;-72
2023/06/07 01:36:51;;;;;;;1999.90;999.90;;;;;;;22.24;44.16;102236.81;5071382;28;20028;-73
2023/06/07 01:39:20;;;;;;;1999.90;999.90;;;;;;;21.61;44.80;102234.59;5057411;28;20047;-72
2023/06/07 01:41:49;;;;;;;1999.90;999.90;;;;;;;21.75;44.35;102235.00;5056890;28;20024;-71
2023/06/07 01:44:15;;;;;;;1999.90;999.90;;;;;;;22.11;44.33;102236.41;5072210;28;20123;-72
2023/06/07 01:46:42;;;;;;;1999.90;999.90;;;;;;;22.33;43.27;102234.69;5072619;28;20110;-72
2023/06/07 01:49:07;;;;;;;1999.90;999.90;;;;;;;22.34;43.57;102227.63;5073842;28;20032;-72
2023/06/07 01:51:33;;;;;;;1999.90;999.90;;;;;;;21.86;44.17;102227.50;5088731;28;20030;-72
2023/06/07 01:53:59;;;;;;;1999.90;999.90;;;;;;;21.29;45.35;102237.38;5072463;28;20055;-71
2023/06/07 01:56:48;;;;;;;1999.90;999.90;;;;;;;21.91;43.85;102237.97;5090787;28;20430;-72
2023/06/07 01:59:28;;;;;;;1999.90;999.90;;;;;;;21.27;45.10;102238.38;5073390;28;20038;-71
2023/06/07 02:02:17;;;;;;;1999.90;999.90;;;;;;;21.61;44.38;102230.19;5088614;28;20597;-72
2023/06/07 02:04:46;;;;;;;1999.90;999.90;;;;;;;20.64;47.45;102225.25;5091271;28;20035;-72
2023/06/07 02:07:22;;;;;;;1999.90;999.90;;;;;;;20.89;46.58;102232.50;5072445;28;20105;-73
2023/06/07 02:09:48;;;;;;;1999.90;999.90;;;;;;;21.75;44.20;102223.47;5073233;28;20031;-72
2023/06/07 02:12:14;;;;;;;1999.90;999.90;;;;;;;21.84;44.78;102216.06;5072561;28;20028;-73
2023/06/07 02:14:41;;;;;;;1999.90;999.90;;;;;;;20.89;45.66;102228.06;5055781;28;20387;-72
2023/06/07 02:17:09;;;;;;;1999.90;999.90;;;;;;;21.75;44.72;102212.84;5070667;28;20035;-71
2023/06/07 02:19:37;;;;;;;1999.90;999.90;;;;;;;20.88;46.52;102230.75;5070938;28;20537;-73
2023/06/07 02:22:03;;;;;;;1999.90;999.90;;;;;;;20.07;48.13;102219.84;5081002;28;20039;-71
2023/06/07 02:24:29;;;;;;;1999.90;999.90;;;;;;;21.22;45.44;102219.91;5073297;28;20032;-72
2023/06/07 02:26:55;;;;;;;1999.90;999.90;;;;;;;20.58;47.46;102217.47;5072537;28;20558;-72
2023/06/07 02:29:21;;;;;;;1999.90;999.90;;;;;;;21.35;44.67;102210.63;5071196;28;20495;-72
2023/06/07 02:31:50;;;;;;;1999.90;999.90;;;;;;;21.72;44.16;102216.50;5068590;28;20043;-71
2023/06/07 02:34:15;;;;;;;1999.90;999.90;;;;;;;21.83;44.09;102216.97;5070043;28;20024;-72
2023/06/07 02:36:41;;;;;;;1999.90;999.90;;;;;;;20.21;47.54;102218.53;5051485;28;20391;-72
2023/06/07 02:39:07;;;;;;;1999.90;999.90;;;;;;;20.79;46.17;102216.84;5070624;28;20034;-72
2023/06/07 02:41:33;;;;;;;1999.90;999.90;;;;;;;20.68;47.25;102214.50;5052753;28;20033;-73
2023/06/07 02:43:58;;;;;;;1999.90;999.90;;;;;;;20.95;45.88;102216.34;5053595;28;20503;-74
2023/06/07 02:46:24;;;;;;;1999.90;999.90;;;;;;;20.38;46.61;102226.91;5072481;28;20024;-71
2023/06/07 02:48:49;;;;;;;1999.90;999.90;;;;;;;19.30;49.90;102229.75;5089262;28;20069;-72
2023/06/07 02:51:15;;;;;;;1999.90;999.90;;;;;;;21.23;45.43;102226.13;5089938;28;20073;-72
2023/06/07 02:53:41;;;;;;;1999.90;999.90;;;;;;;22.05;43.10;102210.00;5070439;28;20120;-72
2023/06/07 02:56:08;;;;;;;1999.90;999.90;;;;;;;21.15;44.81;102229.00;5072178;28;20055;-73
2023/06/07 02:58:34;;;;;;;1999.90;999.90;;;;;;;21.08;45.83;102228.34;5071139;28;20061;-73
2023/06/07 03:01:00;;;;;;;1999.90;999.90;;;;;;;21.89;43.45;102223.88;5053389;28;20071;-72
2023/06/07 03:03:25;;;;;;;1999.90;999.90;;;;;;;22.02;43.57;102216.31;5051671;28;20029;-72
2023/06/07 03:05:52;;;;;;;1999.90;999.90;;;;;;;21.70;44.44;102221.00;5067509;28;20043;-72
2023/06/07 03:08:18;;;;;;;1999.90;999.90;;;;;;;20.39;46.74;102228.66;5090653;28;20110;-72
2023/06/07 03:10:44;;;;;;;1999.90;999.90;;;;;;;20.77;46.04;102223.13;5089311;28;20216;-71
2023/06/07 03:13:09;;;;;;;1999.90;999.90;;;;;;;20.49;47.93;102216.81;5070290;28;20084;-73
2023/06/07 03:15:38;;;;;;;1999.90;999.90;;;;;;;21.95;43.95;102214.78;5084413;28;20066;-71
2023/06/07 03:18:04;;;;;;;1999.90;999.90;;;;;;;21.10;45.92;102220.31;5051519;28;20040;-72
2023/06/07 03:20:34;;;;;;;1999.90;999.90;;;;;;;21.00;45.41;102217.09;5077094;28;20376;-72
2023/06/07 03:23:01;;;;;;;1999.90;999.90;;;;;;;20.91;46.07;102220.03;5052819;28;20449;-71
2023/06/07 03:25:27;;;;;;;1999.90;999.90;;;;;;;21.34;44.94;102216.84;5051400;28;20025;-72
2023/06/07 03:27:52;;;;;;;1999.90;999.90;;;;;;;21.16;45.30;102220.13;5050478;28;20028;-72
2023/06/07 03:30:19;;;;;;;1999.90;999.90;;;;;;;21.14;46.00;102217.53;5069425;28;20472;-72
2023/06/07 03:32:45;;;;;;;1999.90;999.90;;;;;;;21.06;46.14;102218.66;5049353;28;20083;-72
2023/06/07 03:35:11;;;;;;;1999.90;999.90;;;;;;;21.97;43.49;102215.63;5067041;28;20038;-72
2023/06/07 03:37:36;;;;;;;1999.90;999.90;;;;;;;21.27;45.22;102212.66;5060402;28;20574;-72
2023/06/07 03:40:03;;;;;;;1999.90;999.90;;;;;;;21.48;45.00;102219.03;5057983;28;20033;-72
2023/06/07 03:42:28;;;;;;;1999.90;999.90;;;;;;;21.81;43.55;102205.50;5064856;28;20050;-73
2023/06/07 03:44:54;;;;;;;1999.90;999.90;;;;;;;21.51;44.15;102205.66;5072626;28;20546;-72
2023/06/07 03:47:19;;;;;;;1999.90;999.90;;;;;;;21.93;44.17;102211.34;5075648;28;20031;-72
2023/06/07 03:49:44;;;;;;;1999.90;999.90;;;;;;;21.30;45.56;102204.56;5094211;28;20403;-74
2023/06/07 03:52:10;;;;;;;1999.90;999.90;;;;;;;20.59;46.78;102209.44;5089457;28;20016;-72
2023/06/07 03:54:36;;;;;;;1999.90;999.90;;;;;;;21.74;45.05;102214.63;5063782;28;20082;-72
2023/06/07 03:57:01;;;;;;;1999.90;999.90;;;;;;;21.74;44.19;102201.34;5057696;28;20028;-73
2023/06/07 03:59:27;;;;;;;1999.90;999.90;;;;;;;21.52;45.06;102218.03;5079056;28;20511;-73
2023/06/07 04:01:54;;;;;;;1999.90;999.90;;;;;;;22.22;43.33;102212.06;5084899;28;20016;-73
2023/06/07 04:04:19;;;;;;;1999.90;999.90;;;;;;;21.49;45.26;102222.59;5075768;28;20039;-73
2023/06/07 04:06:44;;;;;;;1999.90;999.90;;;;;;;21.64;44.51;102214.09;5059084;28;20644;-72
2023/06/07 04:09:10;;;;;;;1999.90;999.90;;;;;;;21.97;43.77;102220.94;5069636;28;20020;-73
2023/06/07 04:11:35;;;;;;;1999.90;999.90;;;;;;;22.10;43.71;102219.56;5083128;28;20471;-73
2023/06/07 04:14:01;;;;;;;1999.90;999.90;;;;;;;20.79;46.25;102232.78;5074360;28;20177;-72
2023/06/07 04:16:26;;;;;;;1999.90;999.90;;;;;;;22.19;43.02;102223.69;5071839;28;20116;-73
2023/06/07 04:18:51;;;;;;;1999.90;999.90;;;;;;;21.58;44.18;102222.28;5093376;28;20036;-73
2023/06/07 04:21:17;;;;;;;1999.90;999.90;;;;;;;21.30;45.11;102227.66;5075036;28;20038;-72
2023/06/07 04:23:42;;;;;;;1999.90;999.90;;;;;;;21.19;45.41;102231.50;5068320;28;20028;-73
2023/06/07 04:26:08;;;;;;;1999.90;999.90;;;;;;;22.36;42.87;102225.75;5073149;28;20472;-72
2023/06/07 04:28:40;;;;;;;1999.90;999.90;;;;;;;22.46;43.19;102235.13;5065204;28;20118;-72
2023/06/07 04:31:08;;;;;;;1999.90;999.90;;;;;;;22.31;43.64;102235.66;5059454;28;20536;-73
2023/06/07 04:33:37;;;;;;;1999.90;999.90;;;;;;;22.22;43.21;102228.03;5092137;28;20129;-73
2023/06/07 04:36:02;;;;;;;1999.90;999.90;;;;;;;22.13;43.58;102240.75;5066965;28;20016;-73
2023/06/07 04:38:29;;;;;;;1999.90;999.90;;;;;;;21.61;44.91;102243.47;5060370;28;20123;-72
2023/06/07 04:40:55;;;;;;;1999.90;999.90;;;;;;;22.29;43.28;102229.53;5082025;28;20028;-72
2023/06/07 04:43:23;;;;;;;1999.90;999.90;;;;;;;22.42;43.25;102243.28;5073973;28;20023;-74
2023/06/07 04:45:54;;;;;;;1999.90;999.90;;;;;;;;;;5075362;28;20024;-72
2023/06/07 04:48:28;;;;;;;1999.90;999.90;;;;;;;22.88;41.73;102239.69;5075282;28;20028;-72
2023/06/07 04:51:03;;;;;;;1999.90;999.90;;;;;;;22.70;42.78;102238.63;5092706;28;20028;-72
2023/06/07 04:53:34;;;;;;;1999.90;999.90;;;;;;;23.42;40.90;102231.31;5075253;28;20054;-72
2023/06/07 04:55:59;;;;;;;1999.90;999.90;;;;;;;23.00;42.29;102237.50;5066933;28;20497;-72
2023/06/07 04:58:25;;;;;;;1999.90;999.90;;;;;;;22.39;42.43;102236.28;5073476;28;20085;-73
2023/06/07 05:00:51;;;;;;;1999.90;999.90;;;;;;;23.31;40.89;102236.25;5075062;28;20039;-72
2023/06/07 05:03:21;;;;;;;1999.90;999.90;;;;;;;23.73;40.33;102227.34;5074085;28;20114;-72
2023/06/07 05:05:48;;;;;;;1999.90;999.90;;;;;;;23.49;40.42;102224.81;5074288;28;20027;-73
2023/06/07 05:08:14;;;;;;;1999.90;999.90;;;;;;;23.17;41.34;102236.84;5053599;28;20033;-73
2023/06/07 05:10:40;;;;;;;1999.90;999.90;;;;;;;22.49;42.25;102237.69;5057772;28;20082;-72
2023/06/07 05:13:05;;;;;;;1999.90;999.90;;;;;;;23.32;40.57;102228.19;5092352;28;20028;-72
2023/06/07 05:15:31;;;;;;;1999.90;999.90;;;;;;;24.38;39.29;102232.50;5092532;28;20028;-72
2023/06/07 05:17:58;;;;;;;1999.90;999.90;;;;;;;23.79;39.63;102227.06;5049519;28;20133;-72
2023/06/07 05:20:27;;;;;;;1999.90;999.90;;;;;;;23.58;40.28;102233.38;5071841;28;20110;-72
2023/06/07 05:22:53;;;;;;;1999.90;999.90;;;;;;;23.07;41.04;102230.97;5053818;28;20044;-72
2023/06/07 05:25:18;;;;;;;1999.90;999.90;;;;;;;22.26;43.08;102237.66;5071602;28;20113;-72
2023/06/07 05:27:43;;;;;;;1999.90;999.90;;;;;;;22.78;42.82;102238.34;5058941;28;20070;-73
2023/06/07 05:30:09;;;;;;;1999.90;999.90;;;;;;;22.97;41.80;102232.25;5053617;28;20052;-72
2023/06/07 05:32:36;;;;;;;1999.90;999.90;;;;;;;23.67;40.76;102232.94;5071390;28;20028;-72
2023/06/07 05:35:03;;;;;;;1999.90;999.90;;;;;;;25.58;37.83;102228.50;5071838;28;20020;-72
2023/06/07 05:37:30;;;;;;;1999.90;999.90;;;;;;;25.05;38.03;102233.78;5081087;28;20480;-72
2023/06/07 05:39:56;;;;;;;1999.90;999.90;;;;;;;23.31;40.31;102238.91;5072585;28;20430;-72
2023/06/07 05:42:21;;;;;;;1999.90;999.90;;;;;;;23.87;39.70;102240.94;5066286;28;20074;-72
2023/06/07 05:44:48;;;;;;;1999.90;999.90;;;;;;;24.17;39.55;102232.53;5086100;28;20054;-72
2023/06/07 05:47:14;;;;;;;1999.90;999.90;;;;;;;25.28;37.77;102241.59;5055294;28;20017;-72
2023/06/07 05:49:40;;;;;;;1999.90;999.90;;;;;;;23.73;40.01;102235.38;5085462;28;20029;-73
2023/06/07 05:52:06;;;;;;;1999.90;999.90;;;;;;;23.17;39.91;102235.03;5084038;28;20103;-72
2023/06/07 05:54:32;;;;;;;1999.90;999.90;;;;;;;22.58;42.33;102247.09;5065918;28;20037;-72
2023/06/07 05:56:57;;;;;;;1999.90;999.90;;;;;;;21.91;43.90;102245.09;5074283;28;20036;-72
2023/06/07 05:59:22;;;;;;;1999.90;999.90;;;;;;;23.31;40.61;102236.25;5076602;28;20030;-72
2023/06/07 06:01:48;;;;;;;1999.90;999.90;;;;;;;23.38;40.92;102248.41;5059105;28;20031;-71
2023/06/07 06:04:15;;;;;;;1999.90;999.90;;;;;;;22.69;42.76;102246.69;5053322;28;20473;-72
2023/06/07 06:06:41;;;;;;;1999.90;999.90;;;;;;;23.30;40.98;102245.19;5052553;28;20089;-73
2023/06/07 06:09:06;;;;;;;1999.90;999.90;;;;;;;24.18;39.62;102236.97;5052935;28;20025;-73
2023/06/07 06:11:32;;;;;;;1999.90;999.90;;;;;;;23.14;41.12;102250.31;5072904;28;20032;-72
2023/06/07 06:13:57;;;;;;;1999.90;999.90;;;;;;;23.51;40.60;102244.28;5070050;28;20078;-74
2023/06/07 06:16:22;;;;;;;1999.90;999.90;;;;;;;22.79;41.69;102241.88;5080956;28;20028;-72
2023/06/07 06:18:48;;;;;;;1999.90;999.90;;;;;;;23.88;40.27;102247.22;5071250;28;20020;-72
2023/06/07 06:21:13;;;;;;;1999.90;999.90;;;;;;;24.51;38.75;102252.38;5072486;28;20114;-72
2023/06/07 06:23:38;;;;;;;1999.90;999.90;;;;;;;24.29;39.59;102251.59;5090940;28;20024;-72
2023/06/07 06:26:04;;;;;;;1999.90;999.90;;;;;;;23.94;39.29;102246.94;5073170;28;20028;-72
2023/06/07 06:28:29;;;;;;;1999.90;999.90;;;;;;;25.39;36.91;102258.03;5072182;28;20020;-73
2023/06/07 06:30:55;;;;;;;1999.90;999.90;;;;;;;25.89;36.49;102249.19;5052849;28;20047;-72
2023/06/07 06:33:20;;;;;;;1999.90;999.90;;;;;;;28.02;33.88;102246.19;5052825;28;20074;-72
2023/06/07 06:35:47;;;;;;;1999.90;999.90;;;;;;;28.02;32.62;102251.53;5069578;28;20488;-73
2023/06/07 06:38:13;;;;;;;1999.90;999.90;;;;;;;27.98;32.26;102261.56;5052791;28;20028;-72
2023/06/07 06:40:38;;;;;;;1999.90;999.90;;;;;;;28.10;31.86;102265.38;5069175;28;20028;-72
2023/06/07 06:43:03;;;;;;;1999.90;999.90;;;;;;;28.22;32.05;102252.97;5052597;28;20027;-72
2023/06/07 06:45:29;;;;;;;1999.90;999.90;;;;;;;27.34;33.06;102266.28;5063145;28;20027;-73
2023/06/07 06:47:55;;;;;;;1999.90;999.90;;;;;;;26.99;33.41;102266.53;5072633;28;20130;-72
2023/06/07 06:50:20;;;;;;;1999.90;999.90;;;;;;;27.92;32.55;102268.19;5068856;28;20456;-72
2023/06/07 06:52:45;;;;;;;1999.90;999.90;;;;;;;27.56;33.01;102263.22;5052725;28;20111;-73
2023/06/07 06:55:11;;;;;;;1999.90;999.90;;;;;;;28.67;31.92;102269.00;5085222;28;20061;-72
2023/06/07 06:57:36;;;;;;;1999.90;999.90;;;;;;;26.53;35.03;102276.16;5089981;28;20561;-72
2023/06/07 07:00:11;;;;;;;1999.90;999.90;;;;;;;28.03;32.20;102269.41;5063700;28;20027;-72
2023/06/07 07:02:37;;;;;;;1999.90;999.90;;;;;;;27.67;32.74;102260.78;5061363;28;20024;-72
2023/06/07 07:05:06;;;;;;;1999.90;999.90;;;;;;;28.76;30.38;102263.03;5071720;28;20020;-72
2023/06/07 07:07:32;;;;;;;1999.90;999.90;;;;;;;30.01;28.89;102254.66;5071743;28;20043;-72
2023/06/07 07:09:58;;;;;;;1999.90;999.90;;;;;;;27.41;32.42;102259.66;5069589;28;20074;-72
2023/06/07 07:12:24;;;;;;;1999.90;999.90;;;;;;;28.74;30.67;102267.63;5054049;28;20043;-72
2023/06/07 07:14:49;;;;;;;1999.90;999.90;;;;;;;26.79;33.66;102265.84;5062029;28;20040;-72
2023/06/07 07:17:15;;;;;;;1999.90;999.90;;;;;;;28.38;31.45;102263.63;5064968;28;20602;-72
2023/06/07 07:19:40;;;;;;;1999.90;999.90;;;;;;;29.44;31.36;102263.94;5063149;28;20036;-72
2023/06/07 07:22:06;;;;;;;1999.90;999.90;;;;;;;29.81;29.66;102261.41;5075466;28;20504;-72
2023/06/07 07:24:31;;;;;;;1999.90;999.90;;;;;;;29.26;30.28;102272.31;5069269;28;20028;-73
2023/06/07 07:26:57;;;;;;;1999.90;999.90;;;;;;;30.81;29.18;102260.69;5071824;28;20357;-72
2023/06/07 07:29:22;;;;;;;1999.90;999.90;;;;;;;31.08;27.76;102257.78;5090560;28;20077;-73
2023/06/07 07:31:47;;;;;;;1999.90;999.90;;;;;;;31.08;27.63;102255.09;5071224;28;20024;-72
2023/06/07 07:34:13;;;;;;;1999.90;999.90;;;;;;;32.75;26.69;102256.44;5072713;28;20024;-73
2023/06/07 07:36:38;;;;;;;1999.90;999.90;;;;;;;30.10;28.50;102256.72;5056726;28;20028;-72
2023/06/07 07:39:05;;;;;;;1999.90;999.90;;;;;;;31.60;27.20;102253.81;5072740;28;20039;-73
2023/06/07 07:41:40;;;;;;;1999.90;999.90;;;;;;;30.03;28.96;102254.53;5058808;28;20054;-73
2023/06/07 07:44:05;;;;;;;1999.90;999.90;;;;;;;28.29;30.68;102264.19;5083192;28;20077;-72
2023/06/07 07:46:31;;;;;;;1999.90;999.90;;;;;;;27.71;33.05;102274.88;5075476;28;20024;-72
2023/06/07 07:48:56;;;;;;;1999.90;999.90;;;;;;;30.52;29.08;102272.63;5053641;28;20027;-72
2023/06/07 07:51:21;;;;;;;1999.90;999.90;;;;;;;29.02;29.90;102284.69;5071171;28;20373;-73
2023/06/07 07:53:47;;;;;;;1999.90;999.90;;;;;;;29.68;29.80;102282.09;5050512;28;20036;-72
2023/06/07 07:56:12;;;;;;;1999.90;999.90;;;;;;;31.83;27.26;102275.47;5052163;28;20024;-73
2023/06/07 07:58:38;;;;;;;1999.90;999.90;;;;;;;31.00;27.51;102279.06;5069387;28;20031;-72
2023/06/07 08:01:04;;;;;;;1999.90;999.90;;;;;;;32.70;25.66;102274.91;5051521;28;20035;-71
2023/06/07 08:03:30;;;;;;;1999.90;999.90;;;;;;;32.47;26.47;102274.06;5051772;28;20108;-72
2023/06/07 08:05:56;;;;;;;1999.90;999.90;;;;;;;33.84;24.01;102264.47;5050938;28;20052;-72
2023/06/07 08:08:21;;;;;;;1999.90;999.90;;;;;;;32.38;25.82;102272.09;5059479;28;20109;-71
2023/06/07 08:10:48;;;;;;;1999.90;999.90;;;;;;;32.78;25.67;102267.03;5071047;28;20035;-72
2023/06/07 08:13:14;;;;;;;1999.90;999.90;;;;;;;34.54;25.27;102261.94;5060106;28;20107;-72
2023/06/07 08:15:40;;;;;;;1999.90;999.90;;;;;;;35.17;23.86;102268.88;5057079;28;20036;-72
2023/06/07 08:18:05;;;;;;;1999.90;999.90;;;;;;;33.31;25.62;102268.94;5070140;28;20028;-71
2023/06/07 08:20:31;;;;;;;1999.90;999.90;;;;;;;33.79;24.64;102255.88;5068834;28;20028;-71
2023/06/07 08:22:56;;;;;;;1999.90;999.90;;;;;;;34.09;24.33;102262.31;5060685;28;20024;-72
2023/06/07 08:25:22;;;;;;;1999.90;999.90;;;;;;;32.89;25.11;102268.84;5054171;28;20020;-71
2023/06/07 08:27:50;;;;;;;1999.90;999.90;;;;;;;34.39;24.46;102269.59;5048969;28;20042;-70
2023/06/07 08:30:16;;;;;;;1999.90;999.90;;;;;;;34.06;24.23;102268.00;5072164;28;20036;-72
2023/06/07 08:32:43;;;;;;;1999.90;999.90;;;;;;;35.53;22.71;102261.00;5060795;28;20024;-72
2023/06/07 08:35:10;;;;;;;1999.90;999.90;;;;;;;35.88;22.38;102262.22;5070211;28;20087;-70
2023/06/07 08:37:35;;;;;;;1999.90;999.90;;;;;;;35.93;21.62;102259.94;5071643;28;20078;-71
2023/06/07 08:40:01;;;;;;;1999.90;999.90;;;;;;;35.61;22.31;102261.13;5070477;28;20476;-72
2023/06/07 08:42:26;;;;;;;1999.90;999.90;;;;;;;34.33;23.86;102259.28;5091301;28;20024;-72
2023/06/07 08:44:51;;;;;;;1999.90;999.90;;;;;;;35.10;23.27;102248.72;5073891;28;20384;-74
2023/06/07 08:47:21;;;;;;;1999.90;999.90;;;;;;;34.76;24.23;102243.66;5061906;28;20055;-72
2023/06/07 08:49:53;;;;;;;1999.90;999.90;;;;;;;33.93;24.67;102250.09;5087082;28;20062;-74
2023/06/07 08:52:19;;;;;;;1999.90;999.90;;;;;;;34.41;23.46;102248.59;5073054;28;20040;-73
2023/06/07 08:54:47;;;;;;;1999.90;999.90;;;;;;;35.41;22.61;102249.44;5072422;28;20076;-73
2023/06/07 08:57:18;;;;;;;1999.90;999.90;;;;;;;35.83;23.62;102259.09;5067167;28;21341;-73
2023/06/07 08:59:45;;;;;;;1999.90;999.90;;;;;;;36.30;21.74;102259.03;5055521;28;20105;-73
2023/06/07 09:02:15;;;;;;;1999.90;999.90;;;;;;;36.63;21.06;102259.44;5061906;28;20020;-73
2023/06/07 09:04:41;;;;;;;1999.90;999.90;;;;;;;35.53;22.22;102263.72;5072452;28;20024;-74
2023/06/07 09:07:09;;;;;;;1999.90;999.90;;;;;;;34.62;23.54;102264.81;5075235;28;20490;-73
2023/06/07 09:09:35;;;;;;;1999.90;999.90;;;;;;;34.93;23.53;102262.00;5056005;28;20036;-72
2023/06/07 09:12:01;;;;;;;1999.90;999.90;;;;;;;33.79;24.01;102264.03;5074690;28;20024;-72
2023/06/07 09:14:29;;;;;;;1999.90;999.90;;;;;;;33.16;24.82;102278.34;5075004;28;20030;-73
2023/06/07 09:16:56;;;;;;;1999.90;999.90;;;;;;;35.21;22.55;102259.44;5072195;28;20205;-73
2023/06/07 09:19:49;;;;;;;1999.90;999.90;;;;;;;35.11;23.37;102258.59;5076296;28;20491;-73
2023/06/07 09:22:17;;;;;;;1999.90;999.90;;;;;;;35.13;23.43;102262.88;5051093;28;20051;-73
2023/06/07 09:24:42;;;;;;;1999.90;999.90;;;;;;;35.33;23.14;102268.31;5071486;28;20027;-73
2023/06/07 09:27:08;;;;;;;1999.90;999.90;;;;;;;35.39;23.65;102266.88;5054047;28;20029;-74
2023/06/07 09:29:43;;;;;;;1999.90;999.90;;;;;;;35.81;21.51;102261.06;5054483;28;20423;-74
2023/06/07 09:32:23;;;;;;;1999.90;999.90;;;;;;;34.72;22.29;102258.50;5054453;28;20148;-75
2023/06/07 09:34:49;;;;;;;1999.90;999.90;;;;;;;33.25;24.60;102264.06;5063771;28;20504;-73
2023/06/07 09:37:20;;;;;;;1999.90;999.90;;;;;;;34.02;22.71;102244.84;5086151;28;20027;-74
2023/06/07 09:39:46;;;;;;;1999.90;999.90;;;;;;;34.95;21.72;102253.72;5091712;28;20436;-73
2023/06/07 09:42:16;;;;;;;1999.90;999.90;;;;;;;36.14;21.31;102245.22;5062905;28;20028;-74
2023/06/07 09:44:42;;;;;;;1999.90;999.90;;;;;;;34.31;23.67;102256.72;5068647;28;20149;-74
2023/06/07 09:47:19;;;;;;;1999.90;999.90;;;;;;;34.36;22.11;102247.28;5080097;28;20099;-73
2023/06/07 09:49:44;;;;;;;1999.90;999.90;;;;;;;34.81;21.79;102252.28;5057064;28;20452;-73
2023/06/07 09:52:15;;;;;;;1999.90;999.90;;;;;;;35.90;21.17;102253.91;5055472;28;20051;-74
2023/06/07 09:54:45;;;;;;;1999.90;999.90;;;;;;;35.99;22.11;102253.03;5056293;28;20101;-73
2023/06/07 09:57:27;;;;;;;1999.90;999.90;;;;;;;36.40;21.23;102248.13;5068184;28;20024;-75
2023/06/07 10:00:14;;;;;;;1999.90;999.90;;;;;;;33.99;24.34;102249.56;5080185;28;20028;-74
2023/06/07 10:02:42;;;;;;;1999.90;999.90;;;;;;;34.41;23.70;102247.75;5069129;28;20036;-73
2023/06/07 10:05:07;;;;;;;1999.90;999.90;;;;;;;33.96;23.74;102241.72;5053609;28;20035;-74
2023/06/07 10:07:38;;;;;;;1999.90;999.90;;;;;;;33.93;23.95;102241.97;5066479;28;20032;-74
2023/06/07 10:10:06;;;;;;;1999.90;999.90;;;;;;;32.39;25.78;102244.91;5057393;28;20020;-73
2023/06/07 10:12:35;;;;;;;1999.90;999.90;;;;;;;33.33;25.69;102255.25;5085410;28;20038;-74
2023/06/07 10:15:06;;;;;;;1999.90;999.90;;;;;;;31.38;26.38;102254.59;5070541;28;20040;-75
2023/06/07 10:17:48;;;;;;;1999.90;999.90;;;;;;;32.04;26.06;102253.13;5062233;28;20028;-74
2023/06/07 10:20:24;;;;;;;1999.90;999.90;;;;;;;31.39;26.68;102244.63;5057034;28;20039;-74
2023/06/07 10:22:54;;;;;;;1999.90;999.90;;;;;;;32.80;26.88;102245.25;5091054;28;20024;-74
2023/06/07 10:25:23;;;;;;;1999.90;999.90;;;;;;;32.37;25.87;102237.91;5065083;28;20028;-75
2023/06/07 10:28:21;;;;;;;1999.90;999.90;;;;;;;33.81;23.76;102238.50;5052852;28;20020;-75
2023/06/07 10:30:57;;;;;;;1999.90;999.90;;;;;;;33.54;24.26;102241.72;5066441;28;20032;-74
2023/06/07 10:33:24;;;;;;;1999.90;999.90;;;;;;;34.86;23.78;102231.00;5073904;28;20027;-75
2023/06/07 10:35:50;;;;;;;1999.90;999.90;;;;;;;35.96;22.05;102229.69;5072581;28;20031;-75
2023/06/07 10:38:16;;;;;;;1999.90;999.90;;;;;;;34.67;22.82;102235.34;5073444;28;20032;-76
2023/06/07 10:40:42;;;;;;;1999.90;999.90;;;;;;;34.64;22.98;102238.38;5072631;28;20131;-75
2023/06/07 10:43:07;;;;;;;1999.90;999.90;;;;;;;35.55;22.73;102234.53;5091930;28;20038;-76
2023/06/07 10:45:33;;;;;;;1999.90;999.90;;;;;;;35.26;22.44;102229.13;5073588;28;20035;-76
2023/06/07 10:48:32;;;;;;;1999.90;999.90;;;;;;;36.68;21.25;102232.63;5072636;28;20024;-75